Time;durP1;ratioP1;P1;durP2;ratioP2;P2;SDS_P1;SDS_P2;PMS_P1;PMS_P2;Temp;Humidity;BMP_temperature;BMP_pressure;BME280_temperature;BME280_humidity;BME280_pressure;Samples;Min_cycle;Max_cycle;Signal;HPM_P1;HPM_P2
2023/05/08 00:00:43;;;;;;;19.03;15.70;;;16.30;99.90;;;;;;5070962;28;20170;-65
2023/05/08 00:03:08;;;;;;;16.97;14.87;;;16.20;99.90;;;;;;5077482;28;20260;-64
2023/05/08 00:05:34;;;;;;;16.47;14.77;;;16.20;99.90;;;;;;5089845;28;20204;-65
2023/05/08 00:08:00;;;;;;;18.53;15.50;;;16.20;99.90;;;;;;5086281;28;20647;-64
2023/05/08 00:10:29;;;;;;;17.90;16.17;;;16.20;99.90;;;;;;5070761;28;20181;-64
2023/05/08 00:12:55;;;;;;;17.40;15.57;;;16.20;99.90;;;;;;5074049;28;20344;-65
2023/05/08 00:15:21;;;;;;;18.70;16.80;;;16.20;99.90;;;;;;5091280;28;20214;-65
2023/05/08 00:17:46;;;;;;;18.37;16.57;;;16.20;99.90;;;;;;5089261;28;20188;-64
2023/05/08 00:20:12;;;;;;;19.57;17.20;;;16.10;99.90;;;;;;5070602;28;20245;-64
2023/05/08 00:22:38;;;;;;;18.63;15.00;;;16.20;99.90;;;;;;5086145;28;20213;-65
2023/05/08 00:25:04;;;;;;;18.30;15.33;;;16.10;99.90;;;;;;5091042;28;20166;-64
2023/05/08 00:27:31;;;;;;;21.53;16.13;;;16.20;99.90;;;;;;5090493;28;20174;-65
2023/05/08 00:29:57;;;;;;;17.37;15.57;;;16.20;99.90;;;;;;5090758;28;20166;-64
2023/05/08 00:32:23;;;;;;;16.93;15.23;;;16.20;99.90;;;;;;5072519;28;20240;-65
2023/05/08 00:34:49;;;;;;;17.43;15.70;;;16.30;99.90;;;;;;5069907;28;20175;-65
2023/05/08 00:37:15;;;;;;;17.87;16.07;;;16.30;99.90;;;;;;5087107;28;20770;-65
2023/05/08 00:39:40;;;;;;;18.13;15.97;;;16.30;99.90;;;;;;5090521;28;20158;-64
2023/05/08 00:42:06;;;;;;;16.87;15.27;;;16.30;99.90;;;;;;5075800;28;20695;-65
2023/05/08 00:44:31;;;;;;;20.00;16.90;;;16.20;99.90;;;;;;5070791;28;20697;-65
2023/05/08 00:46:57;;;;;;;18.90;17.00;;;16.20;99.90;;;;;;5083387;28;20209;-65
2023/05/08 00:49:23;;;;;;;18.03;16.10;;;16.20;99.90;;;;;;5090755;28;20165;-64
2023/05/08 00:51:52;;;;;;;17.73;15.93;;;16.20;99.90;;;;;;5081043;28;20292;-64
2023/05/08 00:54:19;;;;;;;17.57;15.77;;;16.20;99.90;;;;;;5074323;28;20532;-65
2023/05/08 00:56:45;;;;;;;17.93;15.30;;;16.20;99.90;;;;;;5084094;28;20297;-65
2023/05/08 00:59:13;;;;;;;18.40;16.23;;;16.20;99.90;;;;;;5094167;28;20173;-65
2023/05/08 01:01:40;;;;;;;18.70;16.77;;;16.20;99.90;;;;;;5083669;28;20193;-65
2023/05/08 01:04:06;;;;;;;19.50;16.20;;;16.20;99.90;;;;;;5073948;28;20181;-65
2023/05/08 01:06:33;;;;;;;18.63;16.57;;;16.20;99.90;;;;;;5079769;28;20193;-65
2023/05/08 01:08:59;;;;;;;18.70;16.70;;;16.20;99.90;;;;;;5092885;28;20181;-65
2023/05/08 01:11:35;;;;;;;20.57;15.70;;;16.20;99.90;;;;;;5087739;28;20224;-63
2023/05/08 01:14:11;;;;;;;17.27;15.57;;;16.20;99.90;;;;;;5072535;28;20203;-65
2023/05/08 01:16:59;;;;;;;17.40;15.60;;;16.10;99.90;;;;;;5074776;28;20292;-65
2023/05/08 01:19:38;;;;;;;17.87;15.60;;;16.10;99.90;;;;;;5073576;28;20168;-64
2023/05/08 01:22:22;;;;;;;18.77;16.73;;;16.10;99.90;;;;;;5083432;28;20181;-65
2023/05/08 01:25:15;;;;;;;18.07;15.87;;;16.10;99.90;;;;;;5092285;28;20622;-64
2023/05/08 01:28:14;;;;;;;20.63;17.23;;;16.00;99.90;;;;;;5093807;28;20570;-65
2023/05/08 01:31:06;;;;;;;18.37;16.20;;;16.00;99.90;;;;;;5074831;28;20197;-65
2023/05/08 01:33:55;;;;;;;19.63;16.70;;;16.00;99.90;;;;;;5072600;28;20186;-64
2023/05/08 01:36:27;;;;;;;17.73;15.40;;;15.90;99.90;;;;;;5073539;28;20216;-65
2023/05/08 01:39:03;;;;;;;19.73;15.90;;;15.90;99.90;;;;;;5073978;28;20170;-65
2023/05/08 01:41:33;;;;;;;19.93;16.37;;;15.80;99.90;;;;;;5093374;28;20165;-65
2023/05/08 01:44:15;;;;;;;21.90;16.13;;;15.70;99.90;;;;;;5091486;28;20706;-65
2023/05/08 01:46:44;;;;;;;24.07;18.50;;;15.80;99.90;;;;;;5073260;28;20197;-65
2023/05/08 01:49:15;;;;;;;25.83;20.03;;;15.70;99.90;;;;;;5075799;28;20562;-65
2023/05/08 01:51:44;;;;;;;26.07;20.10;;;15.80;99.90;;;;;;5093211;28;20165;-64
2023/05/08 01:54:14;;;;;;;21.47;18.97;;;15.70;99.90;;;;;;5092429;28;20173;-65
2023/05/08 01:56:43;;;;;;;19.20;17.17;;;15.70;99.90;;;;;;5093358;28;20210;-65
2023/05/08 01:59:12;;;;;;;21.40;18.30;;;15.80;99.90;;;;;;5091101;28;20165;-65
2023/05/08 02:01:38;;;;;;;22.57;18.20;;;15.80;99.90;;;;;;5092480;28;20162;-65
2023/05/08 02:04:05;;;;;;;20.70;17.47;;;15.70;99.90;;;;;;5092593;28;20651;-65
2023/05/08 02:06:32;;;;;;;20.07;17.70;;;15.70;99.90;;;;;;5072881;28;20293;-65
2023/05/08 02:09:00;;;;;;;20.23;16.87;;;15.70;99.90;;;;;;5073907;28;20178;-68
2023/05/08 02:11:27;;;;;;;18.37;15.33;;;15.70;99.90;;;;;;5092800;28;20174;-70
2023/05/08 02:13:56;;;;;;;15.93;14.27;;;15.60;99.90;;;;;;5092999;28;20200;-71
2023/05/08 02:16:24;;;;;;;17.27;13.10;;;15.50;99.90;;;;;;5075799;28;20290;-70
2023/05/08 02:18:52;;;;;;;15.13;13.40;;;15.50;99.90;;;;;;5073764;28;20253;-72
2023/05/08 02:21:19;;;;;;;13.60;12.20;;;15.40;99.90;;;;;;5090457;28;20184;-71
2023/05/08 02:23:46;;;;;;;12.43;11.23;;;15.40;99.90;;;;;;5078865;28;20193;-67
2023/05/08 02:26:15;;;;;;;12.90;11.67;;;15.30;99.90;;;;;;5074224;28;20694;-68
2023/05/08 02:28:41;;;;;;;12.40;11.30;;;15.30;99.90;;;;;;5087337;28;20174;-69
2023/05/08 02:31:09;;;;;;;13.03;11.80;;;15.30;99.90;;;;;;5092282;28;20181;-72
2023/05/08 02:33:39;;;;;;;11.47;10.33;;;15.30;99.90;;;;;;5078623;28;20248;-69
2023/05/08 02:36:06;;;;;;;11.27;10.17;;;15.20;99.90;;;;;;5072135;28;20206;-72
2023/05/08 02:38:34;;;;;;;10.90;9.90;;;15.20;99.90;;;;;;5087058;28;20174;-67
2023/05/08 02:41:02;;;;;;;11.63;10.43;;;15.20;99.90;;;;;;5094152;28;20222;-70
2023/05/08 02:43:28;;;;;;;11.53;10.37;;;15.20;99.90;;;;;;5080845;28;20171;-69
2023/05/08 02:46:14;;;;;;;11.40;10.30;;;15.20;99.90;;;;;;5073012;28;20194;-67
2023/05/08 02:48:58;;;;;;;11.17;10.13;;;15.20;99.90;;;;;;5084806;28;20610;-70
2023/05/08 02:51:44;;;;;;;11.57;9.57;;;15.20;99.90;;;;;;5093283;28;20169;-68
2023/05/08 02:54:16;;;;;;;11.33;9.80;;;15.20;99.90;;;;;;5072038;28;20224;-68
2023/05/08 02:57:09;;;;;;;10.57;9.60;;;15.20;99.90;;;;;;5073225;28;20200;-69
2023/05/08 02:59:42;;;;;;;9.90;9.10;;;15.30;99.90;;;;;;5072900;28;20170;-69
2023/05/08 03:02:30;;;;;;;10.63;9.60;;;15.30;99.90;;;;;;5071915;28;20174;-68
2023/05/08 03:05:04;;;;;;;9.97;9.07;;;15.30;99.90;;;;;;5072845;28;20222;-71
2023/05/08 03:07:32;;;;;;;10.20;9.30;;;15.40;99.90;;;;;;5073564;28;20317;-69
2023/05/08 03:10:04;;;;;;;10.33;9.43;;;15.30;99.90;;;;;;5071473;28;20170;-69
2023/05/08 03:12:32;;;;;;;10.97;9.87;;;15.30;99.90;;;;;;5073250;28;20170;-70
2023/05/08 03:15:27;;;;;;;10.50;9.50;;;15.20;99.90;;;;;;5072070;28;20170;-69
2023/05/08 03:17:56;;;;;;;11.17;10.17;;;15.20;99.90;;;;;;5071889;28;20645;-69
2023/05/08 03:20:25;;;;;;;10.83;9.83;;;15.20;99.90;;;;;;5072551;28;20173;-71
2023/05/08 03:22:54;;;;;;;11.30;10.20;;;15.10;99.90;;;;;;5072308;28;20215;-69
2023/05/08 03:25:20;;;;;;;10.93;9.93;;;15.10;99.90;;;;;;5072532;28;20247;-71
2023/05/08 03:27:47;;;;;;;11.43;10.23;;;15.10;99.90;;;;;;5073221;28;20701;-71
2023/05/08 03:30:14;;;;;;;12.00;10.17;;;15.10;99.90;;;;;;5091748;28;20177;-69
2023/05/08 03:32:41;;;;;;;11.33;10.23;;;15.10;99.90;;;;;;5091315;28;20169;-70
2023/05/08 03:35:08;;;;;;;12.07;10.87;;;15.10;99.90;;;;;;5072967;28;20174;-71
2023/05/08 03:37:34;;;;;;;11.90;10.83;;;15.10;99.90;;;;;;5071338;28;20216;-71
2023/05/08 03:40:00;;;;;;;11.20;10.20;;;15.10;99.90;;;;;;5072276;28;20170;-71
2023/05/08 03:42:26;;;;;;;11.37;10.37;;;15.10;99.90;;;;;;5072841;28;20667;-73
2023/05/08 03:44:53;;;;;;;11.57;10.57;;;15.10;99.90;;;;;;5090451;28;20247;-71
2023/05/08 03:47:20;;;;;;;10.93;10.03;;;15.00;99.90;;;;;;5075822;28;20220;-68
2023/05/08 03:49:48;;;;;;;12.07;10.90;;;15.00;99.90;;;;;;5071719;28;20264;-68
2023/05/08 03:52:14;;;;;;;13.73;10.87;;;15.00;99.90;;;;;;5086626;28;20587;-68
2023/05/08 03:54:40;;;;;;;12.10;11.00;;;15.00;99.90;;;;;;5092815;28;20177;-70
2023/05/08 03:57:06;;;;;;;11.73;10.63;;;14.90;99.90;;;;;;5078780;28;20683;-71
2023/05/08 03:59:49;;;;;;;12.83;10.93;;;14.90;99.90;;;;;;5071049;28;20223;-70
2023/05/08 04:02:35;;;;;;;12.17;11.03;;;14.90;99.90;;;;;;5085199;28;20169;-72
2023/05/08 04:05:20;;;;;;;11.27;10.27;;;14.80;99.90;;;;;;5092667;28;20184;-69
2023/05/08 04:07:52;;;;;;;12.80;11.23;;;14.80;99.90;;;;;;5074449;28;20174;-70
2023/05/08 04:10:29;;;;;;;14.40;10.97;;;14.70;99.90;;;;;;5071261;28;20181;-69
2023/05/08 04:13:10;;;;;;;13.17;11.53;;;14.70;99.90;;;;;;5090550;28;20261;-73
2023/05/08 04:16:18;;;;;;;12.17;10.77;;;14.70;99.90;;;;;;5092489;28;20217;-68
2023/05/08 04:18:46;;;;;;;12.37;10.70;;;14.60;99.90;;;;;;5071037;28;20174;-69
2023/05/08 04:21:17;;;;;;;12.20;10.77;;;14.60;99.90;;;;;;5081688;28;20177;-69
2023/05/08 04:23:44;;;;;;;11.67;10.53;;;14.50;99.90;;;;;;5092739;28;20165;-69
2023/05/08 04:26:12;;;;;;;11.97;10.80;;;14.50;99.90;;;;;;5086426;28;20281;-69
2023/05/08 04:28:39;;;;;;;13.20;11.80;;;14.50;99.90;;;;;;5075277;28;20170;-69
2023/05/08 04:31:06;;;;;;;13.00;11.17;;;14.40;99.90;;;;;;5083006;28;20581;-73
2023/05/08 04:33:34;;;;;;;15.07;11.60;;;14.40;99.90;;;;;;5096547;28;20635;-67
2023/05/08 04:36:03;;;;;;;14.80;10.97;;;14.40;99.90;;;;;;5088313;28;20202;-69
2023/05/08 04:38:29;;;;;;;12.73;11.40;;;14.40;99.90;;;;;;5075984;28;20166;-68
2023/05/08 04:40:54;;;;;;;13.47;12.17;;;14.40;99.90;;;;;;5080629;28;20573;-70
2023/05/08 04:43:20;;;;;;;15.17;11.20;;;14.40;99.90;;;;;;5095107;28;20249;-70
2023/05/08 04:45:46;;;;;;;15.90;12.67;;;14.40;99.90;;;;;;5095451;28;20193;-71
2023/05/08 04:48:11;;;;;;;14.13;11.37;;;14.40;99.90;;;;;;5095885;28;20230;-70
2023/05/08 04:50:37;;;;;;;14.57;12.90;;;14.40;99.90;;;;;;5079475;28;20182;-73
2023/05/08 04:53:03;;;;;;;16.07;12.87;;;14.50;99.90;;;;;;5075890;28;20165;-71
2023/05/08 04:55:28;;;;;;;14.33;12.90;;;14.50;99.90;;;;;;5074832;28;20290;-65
2023/05/08 04:57:54;;;;;;;15.07;13.23;;;14.50;99.90;;;;;;5072749;28;20409;-65
2023/05/08 05:00:19;;;;;;;14.60;13.13;;;14.50;99.90;;;;;;5086440;28;20173;-66
2023/05/08 05:02:45;;;;;;;14.77;12.80;;;14.60;99.90;;;;;;5094311;28;20173;-64
2023/05/08 05:05:11;;;;;;;15.93;13.93;;;14.60;99.90;;;;;;5081927;28;20202;-65
2023/05/08 05:07:36;;;;;;;14.83;13.40;;;14.60;99.90;;;;;;5074038;28;20182;-65
2023/05/08 05:10:03;;;;;;;17.50;14.60;;;14.60;99.90;;;;;;5082547;28;20704;-64
2023/05/08 05:12:28;;;;;;;15.67;13.57;;;14.70;99.90;;;;;;5094185;28;20177;-65
2023/05/08 05:14:54;;;;;;;16.07;14.47;;;14.80;99.90;;;;;;5093676;28;20185;-65
2023/05/08 05:17:20;;;;;;;14.43;12.93;;;14.90;99.90;;;;;;5094059;28;20694;-64
2023/05/08 05:19:46;;;;;;;16.20;14.10;;;14.90;99.90;;;;;;5087609;28;20265;-65
2023/05/08 05:22:11;;;;;;;14.57;13.17;;;14.90;99.90;;;;;;5091315;28;20725;-65
2023/05/08 05:24:38;;;;;;;15.57;12.53;;;15.00;99.90;;;;;;5089738;28;20265;-65
2023/05/08 05:27:04;;;;;;;14.40;13.00;;;15.10;99.90;;;;;;5073497;28;20194;-64
2023/05/08 05:29:30;;;;;;;13.83;12.53;;;15.10;99.90;;;;;;5085386;28;20188;-65
2023/05/08 05:31:55;;;;;;;15.83;14.13;;;15.20;99.90;;;;;;5093618;28;20177;-64
2023/05/08 05:34:21;;;;;;;14.97;12.70;;;15.20;99.90;;;;;;5083214;28;20181;-64
2023/05/08 05:36:46;;;;;;;15.27;13.67;;;15.30;99.90;;;;;;5072626;28;20209;-65
2023/05/08 05:39:12;;;;;;;15.77;14.13;;;15.30;99.90;;;;;;5073524;28;20259;-65
2023/05/08 05:41:38;;;;;;;15.30;13.33;;;15.40;99.90;;;;;;5073305;28;20253;-65
2023/05/08 05:44:04;;;;;;;14.37;12.97;;;15.40;99.90;;;;;;5079797;28;20201;-65
2023/05/08 05:46:31;;;;;;;15.57;13.47;;;15.40;99.90;;;;;;5092228;28;20326;-65
2023/05/08 05:48:59;;;;;;;15.50;13.90;;;15.50;99.90;;;;;;5086492;28;20542;-66
2023/05/08 05:51:26;;;;;;;15.03;12.70;;;15.50;99.90;;;;;;5073064;28;20579;-65
2023/05/08 05:53:52;;;;;;;14.33;12.83;;;15.50;99.90;;;;;;5073112;28;20587;-66
2023/05/08 05:56:18;;;;;;;13.50;12.10;;;15.50;99.90;;;;;;5072959;28;20249;-65
2023/05/08 05:58:44;;;;;;;15.77;13.87;;;15.60;99.90;;;;;;5073251;28;20232;-65
2023/05/08 06:01:13;;;;;;;16.23;13.77;;;15.70;99.90;;;;;;5071382;28;20210;-65
2023/05/08 06:03:39;;;;;;;13.63;12.30;;;15.80;99.90;;;;;;5071994;28;20174;-66
2023/05/08 06:06:04;;;;;;;14.70;13.23;;;15.90;99.90;;;;;;5072689;28;20247;-64
2023/05/08 06:08:30;;;;;;;13.97;12.57;;;16.00;99.90;;;;;;5073084;28;20166;-64
2023/05/08 06:10:55;;;;;;;16.60;13.27;;;16.10;99.90;;;;;;5072454;28;20176;-65
2023/05/08 06:13:21;;;;;;;16.10;14.37;;;16.30;99.90;;;;;;5079789;28;20185;-65
2023/05/08 06:15:49;;;;;;;14.13;11.97;;;16.40;99.90;;;;;;5092624;28;20705;-66
2023/05/08 06:18:14;;;;;;;16.87;13.57;;;16.50;99.90;;;;;;5074601;28;20178;-65
2023/05/08 06:20:40;;;;;;;15.13;12.57;;;16.60;99.90;;;;;;5082420;28;20173;-65
2023/05/08 06:23:06;;;;;;;13.43;12.23;;;16.70;99.90;;;;;;5092661;28;20645;-65
2023/05/08 06:25:31;;;;;;;12.53;11.33;;;16.70;99.90;;;;;;5083806;28;20194;-66
2023/05/08 06:27:57;;;;;;;12.80;11.60;;;16.80;99.90;;;;;;5084304;28;20181;-65
2023/05/08 06:30:23;;;;;;;12.30;11.20;;;16.80;99.90;;;;;;5085435;28;20178;-66
2023/05/08 06:32:48;;;;;;;13.90;12.57;;;16.90;99.90;;;;;;5072324;28;20253;-66
2023/05/08 06:35:17;;;;;;;14.00;12.60;;;16.90;99.90;;;;;;5077088;28;20197;-66
2023/05/08 06:37:44;;;;;;;12.40;11.30;;;16.90;99.90;;;;;;5092399;28;20185;-66
2023/05/08 06:40:10;;;;;;;12.43;11.30;;;16.90;99.90;;;;;;5088062;28;20178;-65
2023/05/08 06:42:36;;;;;;;13.57;12.37;;;16.80;99.90;;;;;;5072093;28;20716;-66
2023/05/08 06:45:03;;;;;;;13.50;12.37;;;16.80;99.90;;;;;;5072206;28;20170;-66
2023/05/08 06:47:28;;;;;;;13.37;12.13;;;16.80;99.90;;;;;;5072035;28;20177;-66
2023/05/08 06:49:54;;;;;;;12.87;11.77;;;16.70;99.90;;;;;;5087911;28;20663;-66
2023/05/08 06:52:20;;;;;;;13.07;12.03;;;16.70;99.90;;;;;;5092196;28;20671;-65
2023/05/08 06:54:46;;;;;;;13.53;12.23;;;16.70;99.90;;;;;;5085787;28;20242;-66
2023/05/08 06:57:13;;;;;;;12.73;11.53;;;16.80;99.90;;;;;;5089089;28;20389;-66
2023/05/08 06:59:39;;;;;;;12.80;11.63;;;16.80;99.90;;;;;;5087327;28;20192;-67
2023/05/08 07:02:05;;;;;;;13.43;12.20;;;17.00;99.90;;;;;;5077505;28;20691;-66
2023/05/08 07:04:30;;;;;;;12.40;11.10;;;17.30;99.90;;;;;;5072116;28;20178;-66
2023/05/08 07:06:56;;;;;;;14.40;11.80;;;17.60;99.90;;;;;;5076109;28;20766;-66
2023/05/08 07:09:22;;;;;;;22.03;20.53;;;17.90;99.90;;;;;;5091765;28;20537;-66
2023/05/08 07:11:47;;;;;;;17.23;15.73;;;18.00;99.90;;;;;;5080292;28;20189;-66
2023/05/08 07:14:13;;;;;;;14.43;13.23;;;18.20;99.90;;;;;;5071720;28;20343;-67
2023/05/08 07:16:39;;;;;;;16.40;15.10;;;18.30;99.90;;;;;;5076394;28;20302;-65
2023/05/08 07:19:05;;;;;;;15.60;14.03;;;18.40;99.90;;;;;;5071370;28;20198;-66
2023/05/08 07:21:31;;;;;;;13.73;12.43;;;18.40;99.90;;;;;;5087539;28;20235;-66
2023/05/08 07:23:56;;;;;;;12.07;10.93;;;18.60;99.90;;;;;;5089310;28;20662;-66
2023/05/08 07:26:23;;;;;;;15.67;14.57;;;18.70;99.90;;;;;;5079682;28;20236;-66
2023/05/08 07:28:49;;;;;;;14.33;13.23;;;18.90;99.90;;;;;;5071365;28;20208;-65
2023/05/08 07:31:15;;;;;;;14.13;13.07;;;19.20;99.90;;;;;;5071254;28;20707;-65
2023/05/08 07:33:41;;;;;;;12.15;11.00;;;19.60;99.90;;;;;;5071421;28;20178;-65
2023/05/08 07:36:07;;;;;;;12.25;10.98;;;20.00;99.90;;;;;;5070949;28;20284;-66
2023/05/08 07:38:33;;;;;;;12.65;11.60;;;20.50;99.90;;;;;;5081838;28;20180;-66
2023/05/08 07:41:00;;;;;;;13.25;12.23;;;20.70;99.90;;;;;;5091153;28;20169;-66
2023/05/08 07:43:26;;;;;;;11.15;10.35;;;20.90;99.90;;;;;;5090168;28;20169;-66
2023/05/08 07:45:52;;;;;;;11.80;10.70;;;21.10;99.90;;;;;;5091241;28;20193;-66
2023/05/08 07:48:18;;;;;;;11.02;10.05;;;21.20;99.90;;;;;;5089789;28;20548;-66
2023/05/08 07:50:44;;;;;;;13.25;12.10;;;21.40;99.90;;;;;;5071068;28;20519;-65
2023/05/08 07:53:10;;;;;;;12.60;11.60;;;21.70;99.90;;;;;;5070994;28;20312;-65
2023/05/08 07:55:35;;;;;;;13.02;11.82;;;21.90;99.90;;;;;;5089954;28;20197;-66
2023/05/08 07:58:01;;;;;;;13.85;12.85;;;22.00;99.90;;;;;;5083210;28;20262;-65
2023/05/08 08:00:28;;;;;;;10.25;9.45;;;22.00;99.90;;;;;;5086855;28;20173;-66
2023/05/08 08:02:54;;;;;;;14.80;13.60;;;21.90;99.90;;;;;;5094233;28;20203;-66
2023/05/08 08:05:19;;;;;;;11.05;10.25;;;21.70;99.90;;;;;;5077402;28;20197;-66
2023/05/08 08:07:45;;;;;;;11.60;10.77;;;21.70;99.90;;;;;;5078059;28;20189;-66
2023/05/08 08:10:11;;;;;;;10.18;9.35;;;21.70;99.90;;;;;;5094185;28;20181;-66
2023/05/08 08:12:37;;;;;;;10.80;9.90;;;21.60;99.90;;;;;;5090828;28;20170;-66
2023/05/08 08:15:03;;;;;;;13.45;12.35;;;21.60;99.90;;;;;;5087605;28;20170;-66
2023/05/08 08:17:28;;;;;;;12.18;11.15;;;21.60;99.90;;;;;;5095131;28;20201;-66
2023/05/08 08:19:54;;;;;;;10.68;9.88;;;21.70;99.90;;;;;;5077215;28;20182;-66
2023/05/08 08:22:19;;;;;;;10.48;9.27;;;21.70;99.90;;;;;;5074827;28;20178;-66
2023/05/08 08:24:45;;;;;;;10.85;9.80;;;21.80;99.90;;;;;;5077061;28;20208;-65
2023/05/08 08:27:11;;;;;;;12.15;11.30;;;21.70;99.90;;;;;;5093029;28;20204;-65
2023/05/08 08:29:36;;;;;;;8.80;8.18;;;21.70;99.90;;;;;;5084718;28;20248;-65
2023/05/08 08:32:02;;;;;;;9.50;8.70;;;21.90;99.90;;;;;;5075561;28;20265;-66
2023/05/08 08:34:28;;;;;;;7.57;6.97;;;22.20;99.90;;;;;;5074464;28;20180;-65
2023/05/08 08:36:53;;;;;;;9.25;8.40;;;22.30;99.90;;;;;;5086684;28;20213;-65
2023/05/08 08:39:19;;;;;;;7.45;6.85;;;22.50;99.90;;;;;;5077881;28;20202;-65
2023/05/08 08:41:45;;;;;;;6.80;6.30;;;22.70;99.90;;;;;;5074291;28;20227;-65
2023/05/08 08:44:11;;;;;;;7.45;6.85;;;23.00;99.90;;;;;;5082397;28;20582;-65
2023/05/08 08:46:43;;;;;;;7.72;7.10;;;23.30;99.90;;;;;;5086417;28;20555;-66
2023/05/08 08:49:12;;;;;;;8.60;6.75;;;23.50;99.90;;;;;;5073609;28;20170;-66
2023/05/08 08:51:48;;;;;;;8.32;6.10;;;23.70;99.90;;;;;;5074554;28;20186;-65
2023/05/08 08:54:20;;;;;;;7.18;6.47;;;24.10;99.90;;;;;;5074263;28;20181;-65
2023/05/08 08:56:48;;;;;;;7.53;6.93;;;24.30;99.90;;;;;;5079266;28;20201;-64
2023/05/08 08:59:16;;;;;;;7.68;6.95;;;24.50;99.90;;;;;;5094189;28;20275;-66
2023/05/08 09:01:44;;;;;;;7.10;6.50;;;24.60;99.90;;;;;;5090721;28;20251;-66
2023/05/08 09:04:10;;;;;;;5.47;5.07;;;25.10;99.90;;;;;;5073767;28;20185;-65
2023/05/08 09:06:37;;;;;;;6.43;5.82;;;25.30;99.90;;;;;;5075391;28;20194;-65
2023/05/08 09:09:03;;;;;;;6.40;5.90;;;25.50;99.90;;;;;;5094073;28;20177;-65
2023/05/08 09:11:28;;;;;;;7.32;6.75;;;25.60;99.90;;;;;;5092360;28;20255;-65
2023/05/08 09:13:55;;;;;;;6.90;6.40;;;25.40;99.90;;;;;;5092513;28;20243;-66
2023/05/08 09:16:21;;;;;;;6.63;6.03;;;25.00;99.90;;;;;;5092684;28;20212;-64
2023/05/08 09:18:47;;;;;;;7.28;6.60;;;24.90;99.90;;;;;;5073808;28;20648;-65
2023/05/08 09:21:13;;;;;;;6.88;6.38;;;24.70;99.90;;;;;;5073465;28;20181;-65
2023/05/08 09:23:55;;;;;;;6.97;6.53;;;24.60;99.90;;;;;;5075295;28;20170;-66
2023/05/08 09:26:40;;;;;;;6.75;6.15;;;24.90;99.90;;;;;;5086800;28;20220;-66
2023/05/08 09:29:18;;;;;;;7.60;6.25;;;25.00;99.90;;;;;;5093601;28;20173;-66
2023/05/08 09:31:46;;;;;;;6.65;6.15;;;24.80;99.90;;;;;;5076779;28;20192;-66
2023/05/08 09:34:32;;;;;;;6.30;5.75;;;24.60;99.90;;;;;;5073227;28;20227;-66
2023/05/08 09:37:03;;;;;;;6.22;5.63;;;24.80;99.90;;;;;;5073803;28;20194;-65
2023/05/08 09:39:29;;;;;;;7.65;6.82;;;25.00;99.90;;;;;;5072800;28;20171;-66
2023/05/08 09:42:03;;;;;;;7.25;6.63;;;24.80;99.90;;;;;;5090373;28;20227;-66
2023/05/08 09:44:43;;;;;;;7.13;6.47;;;24.60;99.90;;;;;;5093534;28;20169;-65
2023/05/08 09:47:11;;;;;;;6.93;5.72;;;24.80;99.90;;;;;;5073172;28;20201;-65
2023/05/08 09:49:39;;;;;;;6.25;5.75;;;24.70;99.90;;;;;;5072808;28;20167;-65
2023/05/08 09:52:06;;;;;;;7.57;6.97;;;24.70;99.90;;;;;;5092763;28;20189;-65
2023/05/08 09:54:31;;;;;;;6.97;6.32;;;24.70;99.90;;;;;;5093233;28;20170;-65
2023/05/08 09:56:57;;;;;;;7.13;6.47;;;24.80;99.90;;;;;;5073043;28;20536;-65
2023/05/08 09:59:27;;;;;;;6.18;5.57;;;25.10;99.90;;;;;;5073063;28;20206;-65
2023/05/08 10:01:54;;;;;;;7.50;6.90;;;25.20;99.90;;;;;;5091141;28;20170;-65
2023/05/08 10:04:33;;;;;;;6.68;6.18;;;25.30;99.90;;;;;;5093194;28;20227;-65
2023/05/08 10:07:00;;;;;;;6.50;5.85;;;25.20;99.90;;;;;;5073845;28;20222;-65
2023/05/08 10:09:26;;;;;;;7.10;6.57;;;24.80;99.90;;;;;;5072880;28;20174;-65
2023/05/08 10:11:53;;;;;;;7.10;6.50;;;24.50;99.90;;;;;;5089566;28;20230;-65
2023/05/08 10:14:19;;;;;;;7.22;6.53;;;24.30;99.90;;;;;;5091377;28;20242;-65
2023/05/08 10:16:47;;;;;;;6.70;5.93;;;24.10;99.90;;;;;;5076920;28;20217;-65
2023/05/08 10:19:18;;;;;;;6.80;6.18;;;23.80;99.90;;;;;;5072589;28;20177;-65
2023/05/08 10:21:55;;;;;;;12.25;7.15;;;23.60;99.90;;;;;;5087063;28;20178;-65
2023/05/08 10:24:33;;;;;;;10.80;7.40;;;23.60;99.90;;;;;;5092446;28;20508;-65
2023/05/08 10:27:16;;;;;;;6.50;6.00;;;23.60;99.90;;;;;;5076169;28;20743;-65
2023/05/08 10:29:56;;;;;;;7.05;6.47;;;23.40;99.90;;;;;;5072267;28;20176;-65
2023/05/08 10:32:23;;;;;;;8.57;7.80;;;23.30;99.90;;;;;;5090968;28;20192;-65
2023/05/08 10:34:55;;;;;;;6.95;6.35;;;23.50;99.90;;;;;;5092755;28;20173;-65
2023/05/08 10:37:21;;;;;;;9.05;6.28;;;23.70;99.90;;;;;;5074786;28;20198;-65
2023/05/08 10:39:48;;;;;;;7.20;6.55;;;23.70;99.90;;;;;;5072153;28;20639;-65
2023/05/08 10:42:14;;;;;;;7.30;6.70;;;23.70;99.90;;;;;;5086825;28;20212;-65
2023/05/08 10:44:39;;;;;;;8.68;7.95;;;23.90;99.90;;;;;;5092547;28;20177;-65
2023/05/08 10:47:28;;;;;;;9.20;6.40;;;23.70;99.90;;;;;;5073346;28;20559;-65
2023/05/08 10:50:22;;;;;;;8.18;7.47;;;23.70;99.90;;;;;;5068209;28;20600;-65
2023/05/08 10:52:58;;;;;;;7.93;7.15;;;23.80;99.90;;;;;;5092418;28;20181;-64
2023/05/08 10:55:32;;;;;;;8.65;7.90;;;23.90;99.90;;;;;;5088996;28;20243;-65
2023/05/08 10:58:02;;;;;;;8.45;7.85;;;23.60;99.90;;;;;;5071887;28;20185;-65
2023/05/08 11:00:32;;;;;;;8.60;7.90;;;23.30;99.90;;;;;;5073665;28;20178;-65
2023/05/08 11:03:08;;;;;;;9.57;8.68;;;23.20;99.90;;;;;;5091488;28;20603;-65
2023/05/08 11:05:48;;;;;;;9.45;8.73;;;23.10;99.90;;;;;;5088746;28;20189;-65
2023/05/08 11:08:16;;;;;;;9.65;8.20;;;23.00;99.90;;;;;;5071589;28;20173;-65
2023/05/08 11:10:47;;;;;;;8.57;7.78;;;23.10;99.90;;;;;;5071777;28;20166;-65
2023/05/08 11:13:13;;;;;;;11.35;7.93;;;23.40;99.90;;;;;;5071556;28;20196;-65
2023/05/08 11:15:40;;;;;;;7.70;7.00;;;23.60;99.90;;;;;;5091207;28;20201;-65
2023/05/08 11:18:10;;;;;;;6.88;6.30;;;23.90;99.90;;;;;;5090418;28;20219;-65
2023/05/08 11:20:54;;;;;;;7.45;6.80;;;24.20;99.90;;;;;;5089461;28;20265;-65
2023/05/08 11:23:26;;;;;;;7.45;6.65;;;24.50;99.90;;;;;;5091924;28;20197;-65
2023/05/08 11:26:06;;;;;;;7.25;6.60;;;25.10;99.90;;;;;;5071742;28;20259;-64
2023/05/08 11:28:55;;;;;;;6.75;6.22;;;25.50;99.90;;;;;;5070737;28;20173;-65
2023/05/08 11:31:22;;;;;;;7.68;6.97;;;25.50;99.90;;;;;;5071505;28;20170;-64
2023/05/08 11:33:47;;;;;;;7.25;6.75;;;25.30;99.90;;;;;;5072755;28;20551;-65
2023/05/08 11:36:21;;;;;;;7.30;6.70;;;25.60;99.90;;;;;;5090715;28;20217;-65
2023/05/08 11:39:07;;;;;;;9.00;8.38;;;25.90;99.90;;;;;;5090833;28;20521;-65
2023/05/08 11:41:33;;;;;;;7.93;6.65;;;25.80;99.90;;;;;;5091651;28;20252;-64
2023/05/08 11:44:03;;;;;;;7.30;6.70;;;25.60;99.90;;;;;;5089755;28;20252;-64
2023/05/08 11:46:37;;;;;;;6.85;6.25;;;25.30;99.90;;;;;;5071572;28;20182;-65
2023/05/08 11:49:03;;;;;;;7.22;6.72;;;25.30;99.90;;;;;;5072300;28;20176;-64
2023/05/08 11:51:32;;;;;;;6.85;6.25;;;25.20;99.90;;;;;;5091108;28;20169;-64
2023/05/08 11:53:59;;;;;;;6.35;5.75;;;25.10;99.90;;;;;;5089680;28;20177;-65
2023/05/08 11:56:25;;;;;;;7.13;6.60;;;25.20;99.90;;;;;;5071052;28;20205;-64
2023/05/08 11:59:04;;;;;;;7.18;6.57;;;25.10;99.90;;;;;;5071134;28;20166;-65
2023/05/08 12:01:31;;;;;;;7.93;7.30;;;25.10;99.90;;;;;;5071005;28;20628;-65
2023/05/08 12:04:05;;;;;;;6.97;6.38;;;25.10;99.90;;;;;;5071920;28;20197;-64
2023/05/08 12:06:32;;;;;;;8.30;7.80;;;25.40;99.90;;;;;;5071036;28;20197;-65
2023/05/08 12:08:59;;;;;;;7.30;6.75;;;25.40;99.90;;;;;;5080815;28;20602;-65
2023/05/08 12:11:25;;;;;;;7.43;6.72;;;25.40;99.90;;;;;;5091096;28;20174;-65
2023/05/08 12:13:52;;;;;;;6.72;6.22;;;25.30;99.90;;;;;;5082206;28;20217;-65
2023/05/08 12:16:18;;;;;;;7.47;6.88;;;25.10;99.90;;;;;;5070621;28;20281;-65
2023/05/08 12:18:43;;;;;;;7.10;6.50;;;24.60;99.90;;;;;;5077656;28;20323;-65
2023/05/08 12:21:10;;;;;;;8.43;7.72;;;24.30;99.90;;;;;;5090686;28;20173;-64
2023/05/08 12:23:37;;;;;;;8.48;7.38;;;23.80;99.90;;;;;;5086853;28;20178;-65
2023/05/08 12:26:03;;;;;;;8.23;7.53;;;23.50;99.90;;;;;;5087206;28;20226;-65
2023/05/08 12:28:31;;;;;;;7.13;6.47;;;23.50;99.90;;;;;;5069678;28;20209;-65
2023/05/08 12:30:57;;;;;;;8.25;7.63;;;23.50;99.90;;;;;;5070275;28;20170;-64
2023/05/08 12:33:23;;;;;;;7.00;6.40;;;23.30;99.90;;;;;;5070812;28;20171;-64
2023/05/08 12:35:49;;;;;;;6.68;6.07;;;23.30;99.90;;;;;;5070839;28;20194;-65
2023/05/08 12:38:15;;;;;;;7.78;7.00;;;23.10;99.90;;;;;;5070558;28;20181;-65
2023/05/08 12:40:41;;;;;;;8.27;7.47;;;23.10;99.90;;;;;;5070027;28;20621;-65
2023/05/08 12:43:07;;;;;;;7.18;6.57;;;23.10;99.90;;;;;;5070536;28;20206;-65